Free0maverick — A8GH3 — position and weather

sailwx.info

Track history (hours):
 
Tides and Currents Weather Stations Pressure Air Temp Water Temp Dewpoint Dewpoint Depression Visibility Wind Speed Wind Dir Waves Ship Positions

Free0maverick

Last reported at 2017-Jul-20 19:39 UTC. Time now 2017-Jul-24 14:35 UTC.
Position N 09°16' W 079°55'.

Length 169 m.

Type: Cargo ship. MMSI: 636013999.

Date/timePositionNaut miles runAvg speedWind from/ knotsBaromVisibWave heightAir tempDewpointWater temp
2017-Jul-20 19:39N 09°16' W 079°55'0 1.1
2017-Jul-20 19:30N 09°16' W 079°55'0 0.5
2017-Jul-20 18:59N 09°16' W 079°55'0 0.2
2017-Jul-20 18:30N 09°17' W 079°55'0 0.2
2017-Jul-20 18:00N 09°17' W 079°55'0 0.4
2017-Jul-20 17:30N 09°17' W 079°55'0 0.3
2017-Jul-20 17:01N 09°17' W 079°55'1 2.4
2017-Jul-20 16:31N 09°18' W 079°55'2 3.6
2017-Jul-20 16:01N 09°20' W 079°55'2 4.3
2017-Jul-20 15:31N 09°22' W 079°55'1 1.3
2017-Jul-20 14:58N 09°23' W 079°56'0 0.0
2017-Jul-20 13:58N 09°23' W 079°56'0 0.0
2017-Jul-20 13:28N 09°23' W 079°56'0 0.0
2017-Jul-20 12:58N 09°23' W 079°56'0 0.0
2017-Jul-20 12:28N 09°23' W 079°56'0 0.0
2017-Jul-20 11:58N 09°23' W 079°56'0 0.0
2017-Jul-20 11:28N 09°23' W 079°56'0 0.0
2017-Jul-20 10:58N 09°23' W 079°56'0 0.0
2017-Jul-20 10:28N 09°23' W 079°56'0 0.0
2017-Jul-20 09:58N 09°23' W 079°56'0 0.0
2017-Jul-20 09:28N 09°23' W 079°56'0 0.0
2017-Jul-20 08:55N 09°23' W 079°56'0 0.1
2017-Jul-20 08:25N 09°23' W 079°56'0 0.0
2017-Jul-20 07:58N 09°23' W 079°56'0 0.0
2017-Jul-20 07:28N 09°23' W 079°56'0 0.0
2017-Jul-20 06:58N 09°23' W 079°56'0 0.1
2017-Jul-20 06:28N 09°23' W 079°56'0 0.0
2017-Jul-20 05:55N 09°23' W 079°56'0 0.0
2017-Jul-20 05:28N 09°23' W 079°56'0 0.0
2017-Jul-20 04:58N 09°23' W 079°56'0 0.1
2017-Jul-20 04:28N 09°23' W 079°56'0 0.2
2017-Jul-20 03:58N 09°23' W 079°56'0 0.1
2017-Jul-20 03:28N 09°23' W 079°56'0 0.1
2017-Jul-20 02:58N 09°23' W 079°56'0 0.1
2017-Jul-20 02:22N 09°23' W 079°56'0 0.1
2017-Jul-20 01:58N 09°23' W 079°56'0 0.1
2017-Jul-20 01:28N 09°23' W 079°56'0 0.8
2017-Jul-20 01:00N 09°23' W 079°55'2 5.0
2017-Jul-20 00:31N 09°25' W 079°55'3 5.3
2017-Jul-20 00:01N 09°28' W 079°54'0 0.9
2017-Jul-19 23:31N 09°28' W 079°54'0 0.9
2017-Jul-19 23:00N 09°29' W 079°54'1 2.9
2017-Jul-19 22:31N 09°30' W 079°54'3 5.3
2017-Jul-19 21:58N 09°33' W 079°53'1 1.6
2017-Jul-19 21:30N 09°33' W 079°53'  
Track history (hours):
 
Tides and Currents Weather Stations Pressure Air Temp Water Temp Dewpoint Dewpoint Depression Visibility Wind Speed Wind Dir Waves Ship Positions

Free0maverick

Last reported at 2017-Jul-20 19:39 UTC. Time now 2017-Jul-24 14:35 UTC.
Position N 09°16' W 079°55'.

Length 169 m.

Type: Cargo ship. MMSI: 636013999.

Date/timePositionNaut miles runAvg speedWind from/ knotsBaromVisibWave heightAir tempDewpointWater temp
2017-Jul-20 19:39N 09°16' W 079°55'0 1.1
2017-Jul-20 19:30N 09°16' W 079°55'0 0.5
2017-Jul-20 18:59N 09°16' W 079°55'0 0.2
2017-Jul-20 18:30N 09°17' W 079°55'0 0.2
2017-Jul-20 18:00N 09°17' W 079°55'0 0.4
2017-Jul-20 17:30N 09°17' W 079°55'0 0.3
2017-Jul-20 17:01N 09°17' W 079°55'1 2.4
2017-Jul-20 16:31N 09°18' W 079°55'2 3.6
2017-Jul-20 16:01N 09°20' W 079°55'2 4.3
2017-Jul-20 15:31N 09°22' W 079°55'1 1.3
2017-Jul-20 14:58N 09°23' W 079°56'0 0.0
2017-Jul-20 13:58N 09°23' W 079°56'0 0.0
2017-Jul-20 13:28N 09°23' W 079°56'0 0.0
2017-Jul-20 12:58N 09°23' W 079°56'0 0.0
2017-Jul-20 12:28N 09°23' W 079°56'0 0.0
2017-Jul-20 11:58N 09°23' W 079°56'0 0.0
2017-Jul-20 11:28N 09°23' W 079°56'0 0.0
2017-Jul-20 10:58N 09°23' W 079°56'0 0.0
2017-Jul-20 10:28N 09°23' W 079°56'0 0.0
2017-Jul-20 09:58N 09°23' W 079°56'0 0.0
2017-Jul-20 09:28N 09°23' W 079°56'0 0.0
2017-Jul-20 08:55N 09°23' W 079°56'0 0.1
2017-Jul-20 08:25N 09°23' W 079°56'0 0.0
2017-Jul-20 07:58N 09°23' W 079°56'0 0.0
2017-Jul-20 07:28N 09°23' W 079°56'0 0.0
2017-Jul-20 06:58N 09°23' W 079°56'0 0.1
2017-Jul-20 06:28N 09°23' W 079°56'0 0.0
2017-Jul-20 05:55N 09°23' W 079°56'0 0.0
2017-Jul-20 05:28N 09°23' W 079°56'0 0.0
2017-Jul-20 04:58N 09°23' W 079°56'0 0.1
2017-Jul-20 04:28N 09°23' W 079°56'0 0.2
2017-Jul-20 03:58N 09°23' W 079°56'0 0.1
2017-Jul-20 03:28N 09°23' W 079°56'0 0.1
2017-Jul-20 02:58N 09°23' W 079°56'0 0.1
2017-Jul-20 02:22N 09°23' W 079°56'0 0.1
2017-Jul-20 01:58N 09°23' W 079°56'0 0.1
2017-Jul-20 01:28N 09°23' W 079°56'0 0.8
2017-Jul-20 01:00N 09°23' W 079°55'2 5.0
2017-Jul-20 00:31N 09°25' W 079°55'3 5.3
2017-Jul-20 00:01N 09°28' W 079°54'0 0.9
2017-Jul-19 23:31N 09°28' W 079°54'0 0.9
2017-Jul-19 23:00N 09°29' W 079°54'1 2.9
2017-Jul-19 22:31N 09°30' W 079°54'3 5.3
2017-Jul-19 21:58N 09°33' W 079°53'1 1.6
2017-Jul-19 21:30N 09°33' W 079°53'  

Dump ship's entire track history